sensor_id;sensor_type;location;lat;lon;timestamp;temperature;humidity
21928;DHT22;11128;51.096;17.190;2022-09-29T00:03:37;5.60;99.90
21928;DHT22;11128;51.096;17.190;2022-09-29T00:08:38;5.50;93.30
21928;DHT22;11128;51.096;17.190;2022-09-29T00:13:39;5.50;99.90
21928;DHT22;11128;51.096;17.190;2022-09-29T00:18:42;5.40;99.90
21928;DHT22;11128;51.096;17.190;2022-09-29T00:23:43;5.50;99.90
21928;DHT22;11128;51.096;17.190;2022-09-29T00:28:54;5.80;99.90
21928;DHT22;11128;51.096;17.190;2022-09-29T00:34:02;6.10;99.90
21928;DHT22;11128;51.096;17.190;2022-09-29T00:39:03;6.30;99.90
21928;DHT22;11128;51.096;17.190;2022-09-29T00:49:48;6.40;99.90
21928;DHT22;11128;51.096;17.190;2022-09-29T00:54:57;6.40;92.80
21928;DHT22;11128;51.096;17.190;2022-09-29T01:00:07;6.30;1.00
21928;DHT22;11128;51.096;17.190;2022-09-29T01:05:15;6.30;19.00
21928;DHT22;11128;51.096;17.190;2022-09-29T01:10:18;6.30;99.90
21928;DHT22;11128;51.096;17.190;2022-09-29T01:15:20;6.40;99.90
21928;DHT22;11128;51.096;17.190;2022-09-29T01:20:23;6.40;99.90
21928;DHT22;11128;51.096;17.190;2022-09-29T01:41:20;5.70;1.00
21928;DHT22;11128;51.096;17.190;2022-09-29T01:46:32;5.50;1.00
21928;DHT22;11128;51.096;17.190;2022-09-29T01:51:49;5.30;1.00
21928;DHT22;11128;51.096;17.190;2022-09-29T01:56:57;5.10;1.00
21928;DHT22;11128;51.096;17.190;2022-09-29T02:02:04;5.20;99.90
21928;DHT22;11128;51.096;17.190;2022-09-29T02:07:20;5.20;99.90
21928;DHT22;11128;51.096;17.190;2022-09-29T02:12:24;5.20;99.90
21928;DHT22;11128;51.096;17.190;2022-09-29T02:17:32;5.20;99.90
21928;DHT22;11128;51.096;17.190;2022-09-29T02:22:35;5.20;99.90
21928;DHT22;11128;51.096;17.190;2022-09-29T02:27:36;5.10;99.90
21928;DHT22;11128;51.096;17.190;2022-09-29T02:32:39;5.10;99.90
21928;DHT22;11128;51.096;17.190;2022-09-29T02:37:59;5.00;99.90
21928;DHT22;11128;51.096;17.190;2022-09-29T02:54:17;4.60;99.90
21928;DHT22;11128;51.096;17.190;2022-09-29T02:59:25;4.50;99.90
21928;DHT22;11128;51.096;17.190;2022-09-29T03:04:28;4.50;99.90
21928;DHT22;11128;51.096;17.190;2022-09-29T03:09:30;4.40;99.90
21928;DHT22;11128;51.096;17.190;2022-09-29T03:14:32;4.30;99.90
21928;DHT22;11128;51.096;17.190;2022-09-29T03:19:33;4.20;99.90
21928;DHT22;11128;51.096;17.190;2022-09-29T03:24:34;4.20;99.90
21928;DHT22;11128;51.096;17.190;2022-09-29T03:29:36;4.20;99.90
21928;DHT22;11128;51.096;17.190;2022-09-29T03:34:38;4.10;99.90
21928;DHT22;11128;51.096;17.190;2022-09-29T03:39:39;4.10;99.90
21928;DHT22;11128;51.096;17.190;2022-09-29T03:44:41;4.10;99.90
21928;DHT22;11128;51.096;17.190;2022-09-29T03:49:42;4.10;99.90
21928;DHT22;11128;51.096;17.190;2022-09-29T03:54:43;4.10;75.90
21928;DHT22;11128;51.096;17.190;2022-09-29T03:59:45;4.00;20.70
21928;DHT22;11128;51.096;17.190;2022-09-29T04:04:46;4.00;99.90
21928;DHT22;11128;51.096;17.190;2022-09-29T04:09:48;4.00;99.90
21928;DHT22;11128;51.096;17.190;2022-09-29T04:14:49;3.90;99.90
21928;DHT22;11128;51.096;17.190;2022-09-29T04:19:52;3.90;99.90
21928;DHT22;11128;51.096;17.190;2022-09-29T04:24:53;3.90;99.90
21928;DHT22;11128;51.096;17.190;2022-09-29T04:29:56;3.90;99.90
21928;DHT22;11128;51.096;17.190;2022-09-29T04:34:57;3.80;24.90
21928;DHT22;11128;51.096;17.190;2022-09-29T04:39:59;3.80;99.90
21928;DHT22;11128;51.096;17.190;2022-09-29T04:45:02;3.80;99.90
21928;DHT22;11128;51.096;17.190;2022-09-29T04:50:06;3.80;99.90
21928;DHT22;11128;51.096;17.190;2022-09-29T04:55:10;3.80;99.90
21928;DHT22;11128;51.096;17.190;2022-09-29T05:00:12;3.80;99.90
21928;DHT22;11128;51.096;17.190;2022-09-29T05:05:13;3.80;99.90
21928;DHT22;11128;51.096;17.190;2022-09-29T05:10:15;3.80;99.90
21928;DHT22;11128;51.096;17.190;2022-09-29T05:15:18;3.80;99.90
21928;DHT22;11128;51.096;17.190;2022-09-29T05:20:19;3.80;99.90
21928;DHT22;11128;51.096;17.190;2022-09-29T05:25:21;3.80;99.90
21928;DHT22;11128;51.096;17.190;2022-09-29T05:30:23;3.90;99.90
21928;DHT22;11128;51.096;17.190;2022-09-29T05:35:24;3.90;99.90
21928;DHT22;11128;51.096;17.190;2022-09-29T05:40:26;3.90;99.90
21928;DHT22;11128;51.096;17.190;2022-09-29T05:45:27;4.00;99.90
21928;DHT22;11128;51.096;17.190;2022-09-29T05:50:28;4.10;99.90
21928;DHT22;11128;51.096;17.190;2022-09-29T05:55:31;4.20;99.90
21928;DHT22;11128;51.096;17.190;2022-09-29T06:00:32;4.30;99.90
21928;DHT22;11128;51.096;17.190;2022-09-29T06:05:39;4.50;99.90
21928;DHT22;11128;51.096;17.190;2022-09-29T06:10:40;4.60;99.90
21928;DHT22;11128;51.096;17.190;2022-09-29T06:15:45;4.60;99.90
21928;DHT22;11128;51.096;17.190;2022-09-29T06:20:46;4.70;99.90
21928;DHT22;11128;51.096;17.190;2022-09-29T06:25:54;4.90;99.90
21928;DHT22;11128;51.096;17.190;2022-09-29T06:31:00;5.10;99.90
21928;DHT22;11128;51.096;17.190;2022-09-29T06:36:08;5.20;99.90
21928;DHT22;11128;51.096;17.190;2022-09-29T06:41:31;5.40;99.90
21928;DHT22;11128;51.096;17.190;2022-09-29T06:46:32;5.80;99.90
21928;DHT22;11128;51.096;17.190;2022-09-29T06:51:34;6.20;99.90
21928;DHT22;11128;51.096;17.190;2022-09-29T06:56:36;6.50;99.90
21928;DHT22;11128;51.096;17.190;2022-09-29T07:01:38;7.00;99.90
21928;DHT22;11128;51.096;17.190;2022-09-29T07:06:40;7.30;99.90
21928;DHT22;11128;51.096;17.190;2022-09-29T07:11:44;7.80;99.90
21928;DHT22;11128;51.096;17.190;2022-09-29T07:16:49;8.30;99.90
21928;DHT22;11128;51.096;17.190;2022-09-29T07:21:50;8.80;99.90
21928;DHT22;11128;51.096;17.190;2022-09-29T07:26:52;9.30;1.00
21928;DHT22;11128;51.096;17.190;2022-09-29T07:31:53;9.60;99.90
21928;DHT22;11128;51.096;17.190;2022-09-29T07:36:55;9.90;1.00
21928;DHT22;11128;51.096;17.190;2022-09-29T07:41:56;10.20;1.00
21928;DHT22;11128;51.096;17.190;2022-09-29T07:46:59;10.60;1.00
21928;DHT22;11128;51.096;17.190;2022-09-29T07:52:00;10.90;1.00
21928;DHT22;11128;51.096;17.190;2022-09-29T07:57:02;11.30;99.90
21928;DHT22;11128;51.096;17.190;2022-09-29T08:02:03;11.70;1.00
21928;DHT22;11128;51.096;17.190;2022-09-29T08:07:05;12.20;99.90
21928;DHT22;11128;51.096;17.190;2022-09-29T08:12:07;12.50;99.90
21928;DHT22;11128;51.096;17.190;2022-09-29T08:17:09;12.70;1.00
21928;DHT22;11128;51.096;17.190;2022-09-29T08:22:10;13.00;26.60
21928;DHT22;11128;51.096;17.190;2022-09-29T08:27:12;13.60;1.00
21928;DHT22;11128;51.096;17.190;2022-09-29T08:32:13;13.90;99.90
21928;DHT22;11128;51.096;17.190;2022-09-29T08:37:14;14.40;99.90
21928;DHT22;11128;51.096;17.190;2022-09-29T08:47:41;14.80;99.90
21928;DHT22;11128;51.096;17.190;2022-09-29T08:52:50;15.30;99.90
21928;DHT22;11128;51.096;17.190;2022-09-29T08:57:57;15.90;99.90
21928;DHT22;11128;51.096;17.190;2022-09-29T09:13:24;15.90;9.50
21928;DHT22;11128;51.096;17.190;2022-09-29T09:23:55;16.50;91.20
21928;DHT22;11128;51.096;17.190;2022-09-29T09:29:01;17.20;1.00
21928;DHT22;11128;51.096;17.190;2022-09-29T09:34:41;16.50;1.00
21928;DHT22;11128;51.096;17.190;2022-09-29T09:40:03;16.30;1.00
21928;DHT22;11128;51.096;17.190;2022-09-29T09:45:16;15.90;1.00
21928;DHT22;11128;51.096;17.190;2022-09-29T09:50:24;15.30;1.00
21928;DHT22;11128;51.096;17.190;2022-09-29T09:55:26;14.90;1.00
21928;DHT22;11128;51.096;17.190;2022-09-29T10:00:34;15.20;1.00
21928;DHT22;11128;51.096;17.190;2022-09-29T10:05:43;15.30;1.00
21928;DHT22;11128;51.096;17.190;2022-09-29T10:10:46;15.80;1.00
21928;DHT22;11128;51.096;17.190;2022-09-29T10:31:31;15.30;1.00
21928;DHT22;11128;51.096;17.190;2022-09-29T10:36:53;16.30;1.00
21928;DHT22;11128;51.096;17.190;2022-09-29T10:41:56;17.50;1.00
21928;DHT22;11128;51.096;17.190;2022-09-29T10:46:58;18.20;1.00
21928;DHT22;11128;51.096;17.190;2022-09-29T10:52:01;18.70;1.00
21928;DHT22;11128;51.096;17.190;2022-09-29T10:57:11;18.90;1.00
21928;DHT22;11128;51.096;17.190;2022-09-29T11:02:34;17.50;1.00
21928;DHT22;11128;51.096;17.190;2022-09-29T11:07:43;16.60;1.00
21928;DHT22;11128;51.096;17.190;2022-09-29T11:12:45;16.60;1.00
21928;DHT22;11128;51.096;17.190;2022-09-29T11:17:51;17.70;1.00
21928;DHT22;11128;51.096;17.190;2022-09-29T11:28:18;20.30;1.00
21928;DHT22;11128;51.096;17.190;2022-09-29T11:44:17;20.40;1.00
21928;DHT22;11128;51.096;17.190;2022-09-29T12:00:08;19.30;1.00
21928;DHT22;11128;51.096;17.190;2022-09-29T12:05:25;18.80;1.00
21928;DHT22;11128;51.096;17.190;2022-09-29T12:11:02;17.90;1.00
21928;DHT22;11128;51.096;17.190;2022-09-29T12:16:15;17.10;1.00
21928;DHT22;11128;51.096;17.190;2022-09-29T12:21:36;17.30;1.00
21928;DHT22;11128;51.096;17.190;2022-09-29T12:26:42;18.50;1.00
21928;DHT22;11128;51.096;17.190;2022-09-29T12:31:47;19.10;1.00
21928;DHT22;11128;51.096;17.190;2022-09-29T12:37:00;20.50;1.00
21928;DHT22;11128;51.096;17.190;2022-09-29T12:42:23;21.80;1.00
21928;DHT22;11128;51.096;17.190;2022-09-29T12:53:19;22.40;1.00
21928;DHT22;11128;51.096;17.190;2022-09-29T12:58:49;23.20;1.00
21928;DHT22;11128;51.096;17.190;2022-09-29T13:14:45;22.80;1.00
21928;DHT22;11128;51.096;17.190;2022-09-29T13:20:27;23.70;1.00
21928;DHT22;11128;51.096;17.190;2022-09-29T13:31:09;22.80;1.00
21928;DHT22;11128;51.096;17.190;2022-09-29T13:36:25;23.40;1.00
21928;DHT22;11128;51.096;17.190;2022-09-29T14:12:36;22.80;1.00
21928;DHT22;11128;51.096;17.190;2022-09-29T14:17:48;22.80;1.00
21928;DHT22;11128;51.096;17.190;2022-09-29T14:23:05;22.80;1.00
21928;DHT22;11128;51.096;17.190;2022-09-29T14:28:12;22.40;1.00
21928;DHT22;11128;51.096;17.190;2022-09-29T14:38:38;21.90;1.00
21928;DHT22;11128;51.096;17.190;2022-09-29T14:43:55;21.50;1.00
21928;DHT22;11128;51.096;17.190;2022-09-29T14:49:24;21.30;1.00
21928;DHT22;11128;51.096;17.190;2022-09-29T15:00:20;20.60;1.00
21928;DHT22;11128;51.096;17.190;2022-09-29T15:05:32;20.10;1.00
21928;DHT22;11128;51.096;17.190;2022-09-29T15:10:40;19.70;1.00
21928;DHT22;11128;51.096;17.190;2022-09-29T15:15:42;19.20;1.00
21928;DHT22;11128;51.096;17.190;2022-09-29T15:21:04;18.90;1.00
21928;DHT22;11128;51.096;17.190;2022-09-29T15:26:12;18.10;1.00
21928;DHT22;11128;51.096;17.190;2022-09-29T15:31:24;17.10;1.00
21928;DHT22;11128;51.096;17.190;2022-09-29T15:36:30;16.50;1.00
21928;DHT22;11128;51.096;17.190;2022-09-29T15:41:34;16.10;1.00
21928;DHT22;11128;51.096;17.190;2022-09-29T15:46:38;15.80;1.00
21928;DHT22;11128;51.096;17.190;2022-09-29T15:51:44;15.40;1.00
21928;DHT22;11128;51.096;17.190;2022-09-29T15:56:54;15.10;1.00
21928;DHT22;11128;51.096;17.190;2022-09-29T16:02:38;14.80;1.00
21928;DHT22;11128;51.096;17.190;2022-09-29T16:08:15;14.40;94.40
21928;DHT22;11128;51.096;17.190;2022-09-29T16:13:29;14.00;99.90
21928;DHT22;11128;51.096;17.190;2022-09-29T16:23:48;13.20;99.90
21928;DHT22;11128;51.096;17.190;2022-09-29T16:39:47;12.20;99.90
21928;DHT22;11128;51.096;17.190;2022-09-29T16:44:49;12.00;1.00
21928;DHT22;11128;51.096;17.190;2022-09-29T16:55:32;11.50;99.90
21928;DHT22;11128;51.096;17.190;2022-09-29T17:00:34;11.40;1.00
21928;DHT22;11128;51.096;17.190;2022-09-29T17:05:39;11.20;99.90
21928;DHT22;11128;51.096;17.190;2022-09-29T17:10:44;11.00;99.90
21928;DHT22;11128;51.096;17.190;2022-09-29T17:15:49;10.70;1.00
21928;DHT22;11128;51.096;17.190;2022-09-29T17:20:52;10.50;99.90
21928;DHT22;11128;51.096;17.190;2022-09-29T17:25:53;10.40;1.00
21928;DHT22;11128;51.096;17.190;2022-09-29T17:31:15;10.30;99.90
21928;DHT22;11128;51.096;17.190;2022-09-29T17:36:16;10.10;1.00
21928;DHT22;11128;51.096;17.190;2022-09-29T17:41:20;10.00;99.90
21928;DHT22;11128;51.096;17.190;2022-09-29T17:46:23;9.80;1.00
21928;DHT22;11128;51.096;17.190;2022-09-29T17:51:24;9.70;1.00
21928;DHT22;11128;51.096;17.190;2022-09-29T17:56:26;9.60;99.90
21928;DHT22;11128;51.096;17.190;2022-09-29T18:01:28;9.50;1.00
21928;DHT22;11128;51.096;17.190;2022-09-29T18:06:31;9.40;1.00
21928;DHT22;11128;51.096;17.190;2022-09-29T18:11:37;9.30;1.00
21928;DHT22;11128;51.096;17.190;2022-09-29T18:16:38;9.20;1.00
21928;DHT22;11128;51.096;17.190;2022-09-29T18:21:40;9.20;99.90
21928;DHT22;11128;51.096;17.190;2022-09-29T18:26:44;9.10;99.90
21928;DHT22;11128;51.096;17.190;2022-09-29T18:31:45;9.10;1.00
21928;DHT22;11128;51.096;17.190;2022-09-29T18:36:48;9.10;1.00
21928;DHT22;11128;51.096;17.190;2022-09-29T18:41:49;9.10;1.00
21928;DHT22;11128;51.096;17.190;2022-09-29T18:46:51;9.10;1.00
21928;DHT22;11128;51.096;17.190;2022-09-29T18:51:52;9.00;1.00
21928;DHT22;11128;51.096;17.190;2022-09-29T18:56:54;9.00;1.00
21928;DHT22;11128;51.096;17.190;2022-09-29T19:01:57;8.90;4.50
21928;DHT22;11128;51.096;17.190;2022-09-29T19:06:59;8.80;1.00
21928;DHT22;11128;51.096;17.190;2022-09-29T19:12:01;8.80;1.00
21928;DHT22;11128;51.096;17.190;2022-09-29T19:17:03;8.70;1.00
21928;DHT22;11128;51.096;17.190;2022-09-29T19:22:07;8.60;1.00
21928;DHT22;11128;51.096;17.190;2022-09-29T19:27:13;8.50;9.40
21928;DHT22;11128;51.096;17.190;2022-09-29T19:32:16;8.50;1.00
21928;DHT22;11128;51.096;17.190;2022-09-29T19:37:17;8.30;1.00
21928;DHT22;11128;51.096;17.190;2022-09-29T19:42:19;8.30;1.00
21928;DHT22;11128;51.096;17.190;2022-09-29T19:47:21;8.20;1.00
21928;DHT22;11128;51.096;17.190;2022-09-29T19:52:23;8.00;1.00
21928;DHT22;11128;51.096;17.190;2022-09-29T19:57:24;8.00;1.00
21928;DHT22;11128;51.096;17.190;2022-09-29T20:02:27;7.90;1.00
21928;DHT22;11128;51.096;17.190;2022-09-29T20:07:29;7.80;1.00
21928;DHT22;11128;51.096;17.190;2022-09-29T20:12:31;7.70;1.00
21928;DHT22;11128;51.096;17.190;2022-09-29T20:17:33;7.60;1.00
21928;DHT22;11128;51.096;17.190;2022-09-29T20:22:35;7.70;99.90
21928;DHT22;11128;51.096;17.190;2022-09-29T20:27:37;7.70;76.90
21928;DHT22;11128;51.096;17.190;2022-09-29T20:32:40;7.70;18.90
21928;DHT22;11128;51.096;17.190;2022-09-29T20:37:41;7.50;1.00
21928;DHT22;11128;51.096;17.190;2022-09-29T20:42:45;7.40;1.00
21928;DHT22;11128;51.096;17.190;2022-09-29T20:47:49;7.30;1.00
21928;DHT22;11128;51.096;17.190;2022-09-29T20:52:52;7.20;1.00
21928;DHT22;11128;51.096;17.190;2022-09-29T20:57:53;7.20;99.90
21928;DHT22;11128;51.096;17.190;2022-09-29T21:03:00;7.10;99.90
21928;DHT22;11128;51.096;17.190;2022-09-29T21:08:01;7.00;99.90
21928;DHT22;11128;51.096;17.190;2022-09-29T21:13:03;7.00;99.90
21928;DHT22;11128;51.096;17.190;2022-09-29T21:18:05;6.90;99.90
21928;DHT22;11128;51.096;17.190;2022-09-29T21:23:06;6.90;99.90
21928;DHT22;11128;51.096;17.190;2022-09-29T21:28:08;6.90;99.90
21928;DHT22;11128;51.096;17.190;2022-09-29T21:33:09;6.90;99.90
21928;DHT22;11128;51.096;17.190;2022-09-29T21:38:11;6.90;99.90
21928;DHT22;11128;51.096;17.190;2022-09-29T21:43:13;6.90;1.00
21928;DHT22;11128;51.096;17.190;2022-09-29T21:48:15;6.90;1.00
21928;DHT22;11128;51.096;17.190;2022-09-29T21:53:16;6.90;1.00
21928;DHT22;11128;51.096;17.190;2022-09-29T21:58:17;6.80;99.90
21928;DHT22;11128;51.096;17.190;2022-09-29T22:03:19;6.80;1.00
21928;DHT22;11128;51.096;17.190;2022-09-29T22:08:21;6.80;1.00
21928;DHT22;11128;51.096;17.190;2022-09-29T22:13:25;6.70;1.00
21928;DHT22;11128;51.096;17.190;2022-09-29T22:18:26;6.80;1.00
21928;DHT22;11128;51.096;17.190;2022-09-29T22:23:31;6.70;99.90
21928;DHT22;11128;51.096;17.190;2022-09-29T22:28:32;6.60;99.90
21928;DHT22;11128;51.096;17.190;2022-09-29T22:33:35;6.60;99.90
21928;DHT22;11128;51.096;17.190;2022-09-29T22:38:39;6.60;1.00
21928;DHT22;11128;51.096;17.190;2022-09-29T22:43:43;6.50;1.00
21928;DHT22;11128;51.096;17.190;2022-09-29T22:48:45;6.50;99.90
21928;DHT22;11128;51.096;17.190;2022-09-29T22:53:46;6.50;1.00
21928;DHT22;11128;51.096;17.190;2022-09-29T22:58:50;6.40;1.00
21928;DHT22;11128;51.096;17.190;2022-09-29T23:03:52;6.40;1.00
21928;DHT22;11128;51.096;17.190;2022-09-29T23:08:53;6.40;1.00
21928;DHT22;11128;51.096;17.190;2022-09-29T23:13:58;6.40;1.00
21928;DHT22;11128;51.096;17.190;2022-09-29T23:19:00;6.30;1.00
21928;DHT22;11128;51.096;17.190;2022-09-29T23:24:02;6.30;1.00
21928;DHT22;11128;51.096;17.190;2022-09-29T23:29:05;6.30;1.00
21928;DHT22;11128;51.096;17.190;2022-09-29T23:34:11;6.20;1.00
21928;DHT22;11128;51.096;17.190;2022-09-29T23:39:12;6.20;1.00
21928;DHT22;11128;51.096;17.190;2022-09-29T23:44:16;6.20;1.00
21928;DHT22;11128;51.096;17.190;2022-09-29T23:49:24;6.10;1.00
21928;DHT22;11128;51.096;17.190;2022-09-29T23:54:27;6.10;99.90
21928;DHT22;11128;51.096;17.190;2022-09-29T23:59:29;6.00;99.90
